Time;durP1;ratioP1;P1;durP2;ratioP2;P2;SDS_P1;SDS_P2;PMS_P1;PMS_P2;Temp;Humidity;BMP_temperature;BMP_pressure;BME280_temperature;BME280_humidity;BME280_pressure;Samples;Min_cycle;Max_cycle;Signal;HPM_P1;HPM_P2
2023/10/09 00:01:46;;;;;;;1.20;0.95;;;16.50;46.50;;;;;;5076896;28;20239;-52
2023/10/09 00:04:13;;;;;;;1.50;0.88;;;16.50;46.50;;;;;;5073133;28;20245;-53
2023/10/09 00:06:41;;;;;;;1.00;0.70;;;16.70;46.30;;;;;;5089693;28;20650;-49
2023/10/09 00:11:56;;;;;;;1.02;0.60;;;16.60;46.30;;;;;;5075713;28;20191;-52
2023/10/09 00:14:23;;;;;;;5.00;1.80;;;16.70;46.00;;;;;;5073103;28;20192;-51
2023/10/09 00:16:55;;;;;;;1.00;0.70;;;16.70;46.00;;;;;;5073041;28;20177;-52
2023/10/09 00:19:30;;;;;;;3.05;1.38;;;16.70;45.40;;;;;;5073128;28;20200;-50
2023/10/09 00:21:58;;;;;;;1.60;0.85;;;16.70;45.40;;;;;;5073016;28;20180;-50
2023/10/09 00:24:24;;;;;;;1.52;0.98;;;16.70;45.70;;;;;;5073026;28;20669;-51
2023/10/09 00:27:12;;;;;;;1.75;1.02;;;16.70;45.30;;;;;;5072925;28;20176;-54
2023/10/09 00:29:47;;;;;;;1.10;0.70;;;16.80;45.20;;;;;;5073123;28;20253;-50
2023/10/09 00:32:18;;;;;;;1.63;0.98;;;16.80;44.90;;;;;;5073043;28;20226;-50
2023/10/09 00:34:44;;;;;;;1.40;0.85;;;16.80;44.30;;;;;;5071670;28;20669;-53
2023/10/09 00:37:16;;;;;;;1.20;0.77;;;16.80;44.70;;;;;;5092964;28;20191;-50
2023/10/09 00:39:45;;;;;;;1.50;0.88;;;16.80;45.00;;;;;;5084902;28;20207;-51
2023/10/09 00:42:16;;;;;;;3.30;1.52;;;16.80;44.90;;;;;;5072647;28;20234;-51
2023/10/09 00:44:42;;;;;;;1.27;0.70;;;16.80;44.90;;;;;;5072420;28;20173;-51
2023/10/09 00:52:50;;;;;;;1.73;1.13;;;16.80;44.00;;;;;;5069840;28;20169;-51
2023/10/09 00:55:27;;;;;;;1.20;0.90;;;16.70;43.90;;;;;;5069920;28;20257;-50
2023/10/09 00:57:59;;;;;;;1.13;0.77;;;16.70;43.80;;;;;;5069969;28;20204;-52
2023/10/09 01:00:32;;;;;;;1.20;0.65;;;16.60;43.40;;;;;;5069812;28;20172;-51
2023/10/09 01:11:18;;;;;;;1.30;0.90;;;16.60;44.20;;;;;;5069786;28;20179;-48
2023/10/09 01:16:15;;;;;;;1.63;1.10;;;16.60;44.40;;;;;;5069851;28;20225;-51
2023/10/09 01:18:46;;;;;;;2.55;1.60;;;16.70;45.40;;;;;;5069567;28;20292;-52
2023/10/09 01:21:13;;;;;;;2.17;1.15;;;16.70;44.60;;;;;;5069560;28;20263;-50
2023/10/09 01:26:39;;;;;;;1.48;1.13;;;16.80;44.40;;;;;;5070815;28;20177;-49
2023/10/09 01:29:18;;;;;;;1.30;1.15;;;16.90;44.50;;;;;;5071841;28;20558;-51
2023/10/09 01:32:06;;;;;;;4.50;1.70;;;17.00;44.30;;;;;;5071756;28;20192;-51
2023/10/09 01:37:22;;;;;;;1.20;0.75;;;16.90;44.00;;;;;;5071884;28;20181;-51
2023/10/09 01:39:50;;;;;;;3.40;0.80;;;16.90;44.30;;;;;;5089105;28;20198;-51
2023/10/09 01:45:27;;;;;;;1.98;1.42;;;16.90;44.40;;;;;;5089730;28;20182;-52
2023/10/09 01:47:56;;;;;;;2.00;1.48;;;16.90;44.90;;;;;;5071855;28;20181;-49
2023/10/09 01:50:30;;;;;;;1.15;0.60;;;16.90;45.40;;;;;;5085289;28;20278;-51
2023/10/09 01:52:56;;;;;;;2.75;1.08;;;16.90;45.60;;;;;;5075149;28;20776;-51
2023/10/09 01:55:29;;;;;;;1.53;0.83;;;17.00;45.30;;;;;;5091827;28;20277;-51
2023/10/09 01:57:58;;;;;;;4.47;2.33;;;17.00;45.20;;;;;;5091776;28;20453;-48
2023/10/09 02:00:27;;;;;;;2.20;1.33;;;17.00;44.90;;;;;;5079893;28;20204;-50
2023/10/09 02:02:53;;;;;;;1.40;0.75;;;17.00;44.60;;;;;;5091689;28;20198;-51
2023/10/09 02:07:51;;;;;;;4.10;1.23;;;16.90;45.20;;;;;;5096188;28;21123;-49
2023/10/09 02:10:31;;;;;;;3.55;1.65;;;16.90;44.40;;;;;;5095908;28;20199;-50
2023/10/09 02:13:07;;;;;;;1.40;0.70;;;16.80;44.80;;;;;;5095731;28;20186;-49
2023/10/09 02:18:18;;;;;;;2.78;1.63;;;16.70;44.90;;;;;;5091971;28;20235;-49
2023/10/09 02:21:12;;;;;;;9.15;2.17;;;16.80;44.70;;;;;;5074038;28;20176;-51
2023/10/09 02:23:41;;;;;;;2.33;1.02;;;16.80;45.60;;;;;;5075216;28;20804;-50
2023/10/09 02:26:17;;;;;;;1.88;0.95;;;16.60;45.60;;;;;;5075215;28;20189;-49
2023/10/09 02:28:43;;;;;;;1.88;1.40;;;16.80;45.80;;;;;;5075393;28;20211;-51
2023/10/09 02:31:13;;;;;;;2.35;1.25;;;16.80;45.70;;;;;;5075333;28;20172;-50
2023/10/09 02:33:39;;;;;;;1.50;1.00;;;16.80;45.60;;;;;;5075013;28;20191;-50
2023/10/09 02:36:08;;;;;;;1.08;0.63;;;16.90;45.80;;;;;;5075008;28;20195;-51
2023/10/09 02:38:41;;;;;;;1.17;0.73;;;16.90;46.20;;;;;;5074958;28;20771;-50
2023/10/09 02:43:47;;;;;;;1.43;1.00;;;17.00;46.00;;;;;;5074772;28;20651;-49
2023/10/09 02:46:18;;;;;;;1.23;1.02;;;17.00;46.00;;;;;;5074865;28;20176;-53
2023/10/09 02:48:50;;;;;;;2.33;0.77;;;17.00;45.50;;;;;;5074630;28;20250;-53
2023/10/09 02:53:57;;;;;;;3.03;1.05;;;17.10;45.30;;;;;;5092567;28;20187;-49
2023/10/09 02:56:43;;;;;;;1.95;0.93;;;17.10;45.40;;;;;;5094945;28;20176;-52
2023/10/09 02:59:09;;;;;;;1.67;0.90;;;17.10;45.20;;;;;;5094666;28;20221;-52
2023/10/09 03:01:37;;;;;;;1.20;0.80;;;17.10;45.60;;;;;;5087667;28;20172;-50
2023/10/09 03:04:10;;;;;;;2.20;1.23;;;17.10;45.50;;;;;;5072889;28;20557;-50
2023/10/09 03:06:43;;;;;;;3.28;1.05;;;17.10;45.60;;;;;;5074638;28;20557;-49
2023/10/09 03:09:19;;;;;;;1.70;1.30;;;17.10;45.60;;;;;;5074404;28;20208;-53
2023/10/09 03:11:53;;;;;;;1.85;1.40;;;17.10;45.80;;;;;;5074251;28;20218;-51
2023/10/09 03:14:20;;;;;;;1.48;1.13;;;17.10;45.60;;;;;;5079105;28;20195;-50
2023/10/09 03:16:48;;;;;;;1.70;0.95;;;17.10;45.50;;;;;;5094405;28;20180;-52
2023/10/09 03:19:14;;;;;;;1.85;1.30;;;17.10;46.00;;;;;;5074299;28;20213;-49
2023/10/09 03:21:40;;;;;;;2.40;1.63;;;17.10;46.00;;;;;;5074228;28;20700;-49
2023/10/09 03:24:07;;;;;;;1.20;0.73;;;17.10;45.70;;;;;;5073896;28;20427;-52
2023/10/09 03:26:34;;;;;;;2.10;1.88;;;17.10;45.40;;;;;;5074436;28;20263;-50
2023/10/09 03:29:06;;;;;;;1.95;1.42;;;17.10;45.80;;;;;;5074046;28;20196;-49
2023/10/09 03:31:33;;;;;;;2.65;2.45;;;17.10;46.10;;;;;;5074116;28;20189;-51
2023/10/09 03:34:00;;;;;;;1.20;0.80;;;17.10;45.90;;;;;;5073899;28;20197;-52
2023/10/09 03:36:30;;;;;;;5.05;2.30;;;17.10;45.80;;;;;;5074026;28;20310;-49
2023/10/09 03:38:57;;;;;;;2.15;1.65;;;17.10;45.80;;;;;;5073706;28;20627;-51
2023/10/09 03:41:28;;;;;;;1.20;0.80;;;17.10;46.10;;;;;;5073857;28;20176;-50
2023/10/09 03:43:55;;;;;;;4.53;1.65;;;17.00;46.20;;;;;;5074005;28;20180;-49
2023/10/09 03:46:22;;;;;;;1.30;1.00;;;17.00;46.30;;;;;;5073994;28;20173;-50
2023/10/09 03:48:52;;;;;;;3.65;1.50;;;17.00;46.20;;;;;;5073738;28;20685;-50
2023/10/09 03:51:21;;;;;;;2.50;0.90;;;17.00;46.50;;;;;;5072413;28;20191;-51
2023/10/09 03:53:54;;;;;;;2.47;1.13;;;17.00;46.80;;;;;;5073634;28;20172;-50
2023/10/09 03:56:21;;;;;;;1.60;0.88;;;17.00;46.60;;;;;;5073802;28;20206;-50
2023/10/09 03:58:54;;;;;;;2.42;1.38;;;17.00;46.90;;;;;;5073512;28;20219;-52
2023/10/09 04:03:59;;;;;;;1.00;0.57;;;17.00;47.10;;;;;;5073271;28;20184;-49
2023/10/09 04:06:32;;;;;;;2.25;1.17;;;17.00;47.20;;;;;;5073783;28;20206;-51
2023/10/09 04:11:46;;;;;;;2.70;1.88;;;17.00;47.30;;;;;;5073427;28;20165;-52
2023/10/09 04:14:32;;;;;;;3.25;1.70;;;17.00;48.50;;;;;;5073172;28;20249;-48
2023/10/09 04:17:32;;;;;;;2.45;1.00;;;17.00;48.50;;;;;;5072076;28;20184;-49
2023/10/09 04:20:47;;;;;;;6.13;2.08;;;17.00;48.50;;;;;;5073149;28;20188;-52
2023/10/09 04:22:42;;;;;;;1.90;1.10;;;17.00;48.70;;;;;;5072967;28;20168;-50
2023/10/09 04:25:14;;;;;;;1.40;0.88;;;17.00;48.60;;;;;;5073053;28;20156;-50
2023/10/09 04:27:44;;;;;;;2.83;1.23;;;17.10;48.80;;;;;;5072608;28;20173;-52
2023/10/09 04:30:15;;;;;;;7.47;2.05;;;17.10;48.60;;;;;;5073066;28;20223;-49
2023/10/09 04:32:45;;;;;;;1.85;1.23;;;17.20;48.80;;;;;;5072991;28;20255;-49
2023/10/09 04:35:24;;;;;;;1.40;1.08;;;17.20;48.60;;;;;;5073082;28;20261;-51
2023/10/09 04:38:03;;;;;;;6.05;2.33;;;17.20;48.80;;;;;;5072872;28;20295;-48
2023/10/09 04:40:48;;;;;;;6.28;2.17;;;17.20;48.80;;;;;;5072753;28;20550;-51
2023/10/09 04:43:22;;;;;;;2.30;2.10;;;17.20;48.90;;;;;;5072612;28;20181;-51
2023/10/09 04:46:06;;;;;;;1.40;0.75;;;17.20;49.00;;;;;;5072997;28;20527;-48
2023/10/09 04:48:38;;;;;;;3.25;1.90;;;17.30;49.40;;;;;;5072856;28;20207;-50
2023/10/09 04:51:33;;;;;;;2.90;1.60;;;17.20;49.10;;;;;;5072722;28;20185;-50
2023/10/09 04:54:14;;;;;;;3.00;1.60;;;17.30;48.90;;;;;;5072688;28;20185;-50
2023/10/09 04:56:53;;;;;;;1.88;1.20;;;17.20;49.00;;;;;;5072751;28;20172;-50
2023/10/09 04:59:19;;;;;;;1.48;1.00;;;17.20;49.60;;;;;;5072380;28;20235;-49
2023/10/09 05:01:57;;;;;;;3.90;1.63;;;17.20;49.30;;;;;;5072366;28;20172;-52
2023/10/09 05:07:22;;;;;;;19.70;1.83;;;17.10;49.70;;;;;;5072508;28;20165;-50
2023/10/09 05:09:55;;;;;;;5.05;1.83;;;17.10;49.70;;;;;;5072330;28;20690;-53
2023/10/09 05:12:26;;;;;;;4.07;1.25;;;17.10;49.40;;;;;;5072233;28;20172;-51
2023/10/09 05:15:13;;;;;;;4.15;2.42;;;17.10;50.30;;;;;;5072425;28;20651;-54
2023/10/09 05:17:39;;;;;;;3.25;2.33;;;17.10;49.80;;;;;;5072546;28;20208;-50
2023/10/09 05:23:23;;;;;;;3.95;2.42;;;17.00;49.50;;;;;;5072621;28;20199;-50
2023/10/09 05:25:55;;;;;;;3.92;2.00;;;16.90;49.20;;;;;;5072264;28;20613;-55
2023/10/09 05:28:48;;;;;;;4.28;2.50;;;16.80;50.10;;;;;;5072310;28;20176;-52
2023/10/09 05:34:01;;;;;;;3.45;1.80;;;16.80;49.70;;;;;;5070838;28;20180;-54
2023/10/09 05:38:59;;;;;;;10.67;2.07;;;16.70;50.40;;;;;;5071181;28;20204;-55
2023/10/09 05:49:46;;;;;;;2.90;1.90;;;16.40;50.50;;;;;;5072333;28;20337;-55
2023/10/09 06:03:48;;;;;;;2.97;2.10;;;16.50;50.70;;;;;;5071892;28;20195;-54
2023/10/09 06:11:39;;;;;;;1.95;1.33;;;16.50;50.50;;;;;;5071806;28;20226;-51
2023/10/09 06:16:41;;;;;;;4.97;2.75;;;16.40;50.40;;;;;;5072033;28;20180;-55
2023/10/09 06:19:12;;;;;;;2.75;1.83;;;16.40;50.60;;;;;;5071516;28;20208;-51
2023/10/09 06:24:19;;;;;;;2.60;1.70;;;16.40;50.00;;;;;;5071579;28;20161;-53
2023/10/09 06:29:34;;;;;;;3.20;2.20;;;16.40;50.80;;;;;;5070590;28;20246;-52
2023/10/09 06:34:51;;;;;;;1.50;1.10;;;16.40;50.50;;;;;;5071665;28;20230;-53
2023/10/09 06:45:16;;;;;;;3.42;2.33;;;16.50;50.30;;;;;;5071518;28;20504;-52
2023/10/09 06:58:57;;;;;;;1.90;1.10;;;16.50;51.20;;;;;;5075087;28;20215;-55
2023/10/09 07:04:45;;;;;;;2.40;1.90;;;16.60;50.90;;;;;;5074598;28;20555;-54
2023/10/09 07:07:20;;;;;;;1.60;1.10;;;16.60;51.70;;;;;;5074573;28;20233;-52
2023/10/09 07:12:33;;;;;;;3.03;2.03;;;16.50;51.30;;;;;;5074600;28;20171;-51
2023/10/09 07:22:52;;;;;;;6.63;2.95;;;16.70;51.50;;;;;;5074693;28;20584;-52
2023/10/09 07:28:18;;;;;;;4.65;3.00;;;16.70;51.80;;;;;;5074475;28;20183;-51
2023/10/09 07:30:45;;;;;;;2.67;1.90;;;16.70;51.40;;;;;;5073212;28;20302;-50
2023/10/09 07:35:57;;;;;;;4.00;2.10;;;16.80;51.30;;;;;;5074230;28;20176;-52
2023/10/09 07:38:29;;;;;;;3.75;3.10;;;16.90;51.10;;;;;;5073019;28;20261;-53
2023/10/09 07:40:59;;;;;;;5.10;2.13;;;16.90;51.20;;;;;;5073993;28;20185;-50
2023/10/09 07:49:24;;;;;;;1.67;1.40;;;16.90;51.40;;;;;;5074242;28;20210;-52
2023/10/09 07:51:52;;;;;;;3.92;1.75;;;16.90;51.30;;;;;;5073855;28;20173;-55
2023/10/09 07:54:31;;;;;;;2.78;1.70;;;16.90;51.70;;;;;;5073897;28;20164;-55
2023/10/09 07:57:08;;;;;;;4.75;3.10;;;17.00;51.50;;;;;;5073762;28;20267;-53
2023/10/09 07:59:41;;;;;;;3.97;2.33;;;17.00;51.40;;;;;;5072887;28;20274;-52
2023/10/09 08:02:13;;;;;;;3.72;1.67;;;17.00;51.60;;;;;;5071352;28;20203;-54
2023/10/09 08:07:10;;;;;;;2.90;2.10;;;17.00;52.10;;;;;;5073755;28;20169;-52
2023/10/09 08:09:48;;;;;;;3.00;2.20;;;17.00;52.20;;;;;;5073417;28;20192;-53
2023/10/09 08:13:45;;;;;;;2.40;2.20;;;17.00;52.10;;;;;;5073509;28;20546;-52
2023/10/09 08:18:03;;;;;;;2.97;1.75;;;17.10;52.20;;;;;;5073533;28;20284;-52
2023/10/09 08:21:41;;;;;;;6.35;3.05;;;17.20;51.90;;;;;;5073814;28;20176;-53
2023/10/09 08:23:33;;;;;;;2.55;1.75;;;17.30;52.30;;;;;;5072506;28;20746;-53
2023/10/09 08:26:14;;;;;;;2.45;1.50;;;17.20;52.20;;;;;;5073468;28;20200;-52
2023/10/09 08:28:45;;;;;;;6.45;4.10;;;17.30;52.10;;;;;;5073313;28;20676;-51
2023/10/09 08:33:59;;;;;;;2.95;2.50;;;17.40;51.90;;;;;;5073516;28;20841;-52
2023/10/09 08:36:28;;;;;;;7.80;3.07;;;17.50;52.30;;;;;;5073376;28;20169;-52
2023/10/09 08:39:12;;;;;;;4.72;1.52;;;17.50;52.30;;;;;;5073146;28;20237;-54
2023/10/09 08:41:38;;;;;;;4.50;2.65;;;17.50;52.20;;;;;;5073216;28;20172;-54
2023/10/09 08:44:05;;;;;;;3.80;2.60;;;17.60;52.20;;;;;;5072838;28;20172;-52
2023/10/09 08:46:32;;;;;;;2.70;1.80;;;17.60;52.20;;;;;;5073090;28;20403;-51
2023/10/09 08:48:59;;;;;;;2.90;2.33;;;17.70;52.80;;;;;;5072801;28;20547;-51
2023/10/09 08:51:26;;;;;;;4.13;2.13;;;17.60;53.00;;;;;;5072900;28;20198;-52
2023/10/09 08:53:53;;;;;;;3.25;2.95;;;17.60;52.70;;;;;;5072738;28;20172;-54
2023/10/09 08:56:23;;;;;;;3.85;2.42;;;17.70;52.60;;;;;;5072896;28;20654;-51
2023/10/09 08:58:57;;;;;;;4.30;2.53;;;17.70;52.90;;;;;;5072795;28;20208;-52
2023/10/09 09:01:24;;;;;;;2.58;2.00;;;17.70;53.50;;;;;;5072878;28;20669;-54
2023/10/09 09:03:51;;;;;;;2.72;1.50;;;17.80;53.40;;;;;;5072280;28;20192;-52
2023/10/09 09:06:20;;;;;;;3.85;1.80;;;17.70;53.60;;;;;;5072646;28;20260;-55
2023/10/09 09:08:47;;;;;;;4.85;3.33;;;17.80;53.50;;;;;;5072638;28;20204;-51
2023/10/09 09:11:23;;;;;;;4.53;1.35;;;17.80;53.40;;;;;;5072853;28;20246;-52
2023/10/09 09:14:04;;;;;;;2.25;1.58;;;17.90;53.70;;;;;;5072346;28;20594;-53
2023/10/09 09:16:31;;;;;;;5.60;2.80;;;17.90;53.90;;;;;;5072805;28;20161;-52
2023/10/09 09:21:40;;;;;;;3.63;2.40;;;18.00;54.70;;;;;;5072542;28;20161;-50
2023/10/09 09:26:58;;;;;;;5.63;1.95;;;18.10;55.30;;;;;;5072462;28;20177;-51
2023/10/09 09:29:57;;;;;;;6.63;2.90;;;18.10;55.20;;;;;;5066840;28;20303;-53
2023/10/09 09:32:35;;;;;;;3.28;2.22;;;18.20;55.00;;;;;;5072219;28;20200;-52
2023/10/09 09:35:04;;;;;;;1.40;1.20;;;18.20;55.20;;;;;;5071950;28;20550;-54
2023/10/09 09:37:38;;;;;;;2.83;1.45;;;18.20;55.00;;;;;;5072176;28;20176;-55
2023/10/09 09:40:15;;;;;;;5.30;1.95;;;18.30;56.00;;;;;;5070698;28;20307;-54
2023/10/09 09:42:48;;;;;;;10.63;2.35;;;18.30;55.70;;;;;;5072050;28;20165;-55
2023/10/09 09:45:14;;;;;;;7.38;2.38;;;18.30;56.10;;;;;;5072316;28;20176;-52
2023/10/09 09:47:51;;;;;;;8.50;2.13;;;18.40;55.90;;;;;;5087337;28;20602;-53
2023/10/09 09:50:24;;;;;;;3.85;1.50;;;18.40;55.90;;;;;;5092168;28;20286;-54
2023/10/09 09:52:55;;;;;;;3.10;2.47;;;18.40;56.60;;;;;;5092033;28;20519;-52
2023/10/09 09:55:30;;;;;;;3.35;1.50;;;18.40;56.40;;;;;;5091960;28;20641;-52
2023/10/09 09:57:57;;;;;;;2.95;1.20;;;18.40;56.10;;;;;;5091750;28;20211;-52
2023/10/09 10:00:42;;;;;;;2.28;1.90;;;18.50;56.50;;;;;;5091885;28;20237;-54
2023/10/09 10:03:16;;;;;;;3.75;1.73;;;18.50;56.20;;;;;;5091760;28;20684;-51
2023/10/09 10:05:46;;;;;;;2.08;1.88;;;18.50;56.10;;;;;;5092211;28;20711;-52
2023/10/09 10:08:19;;;;;;;4.18;2.25;;;18.60;56.20;;;;;;5091758;28;20279;-51
2023/10/09 10:11:04;;;;;;;2.72;1.75;;;18.60;56.40;;;;;;5091992;28;20195;-50
2023/10/09 10:13:42;;;;;;;2.92;2.63;;;18.60;56.50;;;;;;5091621;28;20183;-52
2023/10/09 10:19:00;;;;;;;12.13;2.63;;;18.50;55.70;;;;;;5091454;28;20577;-52
2023/10/09 10:24:11;;;;;;;3.75;2.00;;;18.50;56.80;;;;;;5091790;28;20548;-49
2023/10/09 10:26:37;;;;;;;4.88;3.13;;;18.50;56.10;;;;;;5095863;28;20542;-51
2023/10/09 10:29:23;;;;;;;2.37;1.43;;;18.60;55.60;;;;;;5095651;28;20196;-49
2023/10/09 10:32:08;;;;;;;2.15;1.23;;;18.50;55.90;;;;;;5095821;28;20180;-50
2023/10/09 10:34:55;;;;;;;3.72;1.73;;;18.50;55.90;;;;;;5081196;28;20180;-49
2023/10/09 10:38:24;;;;;;;6.05;2.47;;;;;;;;;;5079173;28;20176;-49
2023/10/09 10:43:31;;;;;;;12.32;2.50;;;;;;;;;;5076745;28;20229;-55
2023/10/09 10:45:52;;;;;;;14.32;3.60;;;;;;;;;;5074863;28;20176;-53
2023/10/09 10:48:37;;;;;;;10.85;2.67;;;;;;;;;;5078600;28;20171;-51
2023/10/09 10:51:04;;;;;;;7.55;2.33;;;;;;;;;;5095147;28;20654;-53
2023/10/09 10:53:47;;;;;;;5.25;1.65;;;;;;;;;;5095161;28;20183;-51
2023/10/09 11:01:53;;;;;;;11.80;2.67;;;18.80;56.00;;;;;;5080024;28;20664;-51
2023/10/09 11:12:44;;;;;;;13.40;3.17;;;;;;;;;;5052275;28;20169;-50
2023/10/09 11:18:16;;;;;;;10.18;2.80;;;19.00;56.10;;;;;;5052261;28;20203;-51
2023/10/09 11:20:55;;;;;;;8.32;2.60;;;;;;;;;;5052155;28;20182;-51
2023/10/09 11:23:35;;;;;;;11.63;4.50;;;;;;;;;;5051958;28;20702;-50
2023/10/09 11:29:23;;;;;;;5.75;2.13;;;19.00;56.00;;;;;;5052112;28;20280;-51
2023/10/09 11:32:23;;;;;;;10.73;4.20;;;19.00;56.20;;;;;;5052011;28;20709;-49
2023/10/09 11:34:54;;;;;;;7.25;2.17;;;19.10;56.20;;;;;;5051811;28;20181;-51
2023/10/09 11:39:55;;;;;;;16.05;3.17;;;19.10;56.40;;;;;;5054322;28;20686;-51
2023/10/09 11:42:47;;;;;;;5.50;2.22;;;19.10;56.40;;;;;;5074225;28;20196;-53
2023/10/09 11:45:24;;;;;;;6.93;2.22;;;19.10;56.10;;;;;;5074076;28;20662;-51
2023/10/09 11:47:56;;;;;;;10.45;2.35;;;19.10;56.10;;;;;;5074138;28;20176;-54
2023/10/09 11:55:50;;;;;;;6.53;3.13;;;;;;;;;;5073983;28;20176;-52
2023/10/09 11:58:22;;;;;;;6.32;2.38;;;19.10;56.40;;;;;;5073837;28;20803;-50
2023/10/09 12:01:04;;;;;;;8.40;4.20;;;19.20;56.20;;;;;;5073707;28;20699;-50
2023/10/09 12:03:31;;;;;;;6.53;3.75;;;;;;;;;;5073507;28;20710;-54
2023/10/09 12:06:04;;;;;;;5.75;3.55;;;19.10;56.40;;;;;;5073746;28;20208;-51
2023/10/09 12:08:32;;;;;;;8.55;3.47;;;19.10;56.60;;;;;;5073722;28;20283;-50
2023/10/09 12:10:58;;;;;;;12.32;3.25;;;19.00;56.40;;;;;;5073689;28;20192;-50
2023/10/09 12:13:25;;;;;;;5.55;4.32;;;19.00;56.60;;;;;;5073303;28;20208;-51
2023/10/09 12:15:52;;;;;;;6.90;3.53;;;19.00;56.70;;;;;;5073748;28;20188;-53
2023/10/09 12:18:19;;;;;;;8.27;2.92;;;19.00;56.60;;;;;;5073397;28;20677;-51
2023/10/09 12:20:52;;;;;;;4.70;3.05;;;19.00;56.60;;;;;;5073473;28;20177;-55
2023/10/09 12:23:22;;;;;;;9.18;4.05;;;19.10;56.60;;;;;;5073337;28;20542;-52
2023/10/09 12:25:56;;;;;;;4.13;2.35;;;19.10;56.40;;;;;;5073181;28;20172;-50
2023/10/09 12:28:23;;;;;;;5.10;1.98;;;19.10;56.50;;;;;;5073458;28;20177;-52
2023/10/09 12:30:52;;;;;;;5.15;2.97;;;19.10;56.30;;;;;;5073357;28;20254;-52
2023/10/09 12:33:28;;;;;;;4.88;4.28;;;19.20;56.30;;;;;;5072862;28;21088;-49
2023/10/09 12:36:00;;;;;;;7.32;3.78;;;19.20;56.10;;;;;;5073218;28;20621;-50
2023/10/09 12:38:33;;;;;;;4.68;3.00;;;19.20;56.00;;;;;;5072905;28;20204;-50
2023/10/09 12:41:19;;;;;;;6.15;3.17;;;19.20;56.00;;;;;;5073207;28;20172;-49
2023/10/09 12:43:46;;;;;;;7.20;3.53;;;19.20;56.30;;;;;;5072695;28;20645;-52
2023/10/09 12:46:16;;;;;;;3.72;2.08;;;19.20;56.00;;;;;;5072952;28;20173;-49
2023/10/09 12:48:46;;;;;;;4.25;2.00;;;19.20;56.10;;;;;;5072142;28;20251;-50
2023/10/09 12:51:16;;;;;;;4.90;2.63;;;19.20;55.90;;;;;;5073111;28;20176;-51
2023/10/09 12:53:42;;;;;;;4.15;3.25;;;19.20;56.30;;;;;;5072656;28;20185;-51
2023/10/09 12:56:09;;;;;;;6.93;3.42;;;19.20;56.20;;;;;;5072731;28;20180;-49
2023/10/09 12:58:38;;;;;;;6.05;2.20;;;19.30;56.20;;;;;;5071226;28;20684;-49
2023/10/09 13:01:11;;;;;;;6.72;2.65;;;;;;;;;;5072731;28;20187;-52
2023/10/09 13:03:40;;;;;;;4.43;2.03;;;19.30;56.30;;;;;;5072702;28;20184;-52
2023/10/09 13:06:11;;;;;;;4.68;2.50;;;19.30;56.10;;;;;;5072646;28;20173;-50
2023/10/09 13:08:40;;;;;;;3.97;2.08;;;19.30;56.00;;;;;;5072613;28;20180;-49
2023/10/09 13:11:10;;;;;;;4.68;2.78;;;19.30;56.10;;;;;;5072310;28;20187;-54
2023/10/09 13:13:41;;;;;;;4.93;2.10;;;19.30;56.00;;;;;;5072119;28;20650;-50
2023/10/09 13:16:12;;;;;;;5.15;3.40;;;19.40;56.20;;;;;;5072532;28;20189;-50
2023/10/09 13:18:49;;;;;;;4.47;1.90;;;19.40;56.20;;;;;;5072399;28;20212;-50
2023/10/09 13:21:16;;;;;;;7.22;2.80;;;19.40;56.10;;;;;;5072686;28;20539;-53
2023/10/09 13:23:46;;;;;;;6.63;2.38;;;19.50;55.80;;;;;;5071019;28;20226;-48
2023/10/09 13:26:19;;;;;;;6.78;3.35;;;;;;;;;;5072143;28;20230;-49
2023/10/09 13:28:52;;;;;;;7.07;2.22;;;19.50;55.70;;;;;;5072091;28;20242;-53
2023/10/09 13:31:20;;;;;;;5.35;2.38;;;19.50;55.60;;;;;;5072067;28;20181;-48
2023/10/09 13:33:47;;;;;;;5.53;2.45;;;19.60;55.60;;;;;;5072105;28;20642;-52
2023/10/09 13:36:19;;;;;;;5.30;2.20;;;19.50;55.60;;;;;;5072296;28;20184;-49
2023/10/09 13:38:48;;;;;;;7.60;3.65;;;19.60;55.60;;;;;;5070593;28;20219;-49
2023/10/09 13:41:17;;;;;;;8.15;3.88;;;19.50;55.70;;;;;;5072531;28;20176;-49
2023/10/09 13:43:43;;;;;;;7.30;3.45;;;19.50;55.70;;;;;;5072086;28;20183;-53
2023/10/09 13:46:13;;;;;;;5.50;2.15;;;19.50;55.80;;;;;;5071880;28;20180;-49
2023/10/09 13:48:43;;;;;;;6.45;3.20;;;19.50;55.80;;;;;;5071946;28;20188;-49
2023/10/09 13:51:13;;;;;;;7.13;3.13;;;19.50;55.70;;;;;;5071830;28;20183;-53
2023/10/09 13:53:44;;;;;;;5.15;3.30;;;19.50;55.80;;;;;;5072097;28;20180;-49
2023/10/09 13:56:18;;;;;;;5.53;1.88;;;19.60;55.60;;;;;;5072492;28;20259;-53
2023/10/09 13:58:50;;;;;;;5.28;2.42;;;19.60;55.50;;;;;;5071711;28;20330;-48
2023/10/09 14:01:28;;;;;;;7.37;3.30;;;19.60;55.50;;;;;;5074616;28;20669;-50
2023/10/09 14:03:59;;;;;;;4.57;2.83;;;19.60;55.50;;;;;;5076052;28;20445;-49
2023/10/09 14:06:33;;;;;;;5.13;2.42;;;19.60;55.40;;;;;;5076191;28;20172;-48
2023/10/09 14:09:04;;;;;;;10.52;3.28;;;19.60;55.40;;;;;;5076262;28;20192;-52
2023/10/09 14:11:30;;;;;;;6.03;2.85;;;19.60;55.50;;;;;;5076213;28;20180;-50
2023/10/09 14:13:55;;;;;;;4.85;2.55;;;19.60;55.60;;;;;;5075629;28;20180;-50
2023/10/09 14:16:27;;;;;;;6.20;2.73;;;;;;;;;;5076270;28;20252;-52
2023/10/09 14:19:07;;;;;;;7.35;2.53;;;19.60;55.60;;;;;;5075857;28;20208;-49
2023/10/09 14:21:37;;;;;;;7.15;2.25;;;19.50;55.60;;;;;;5075988;28;20165;-52
2023/10/09 14:24:15;;;;;;;3.65;2.10;;;19.60;55.60;;;;;;5075913;28;20271;-50
2023/10/09 14:26:41;;;;;;;5.13;2.28;;;19.60;55.60;;;;;;5075554;28;20172;-50
2023/10/09 14:29:07;;;;;;;5.55;2.70;;;19.70;55.70;;;;;;5075610;28;20192;-49
2023/10/09 14:31:38;;;;;;;7.32;3.53;;;;;;;;;;5074405;28;20585;-51
2023/10/09 14:34:05;;;;;;;4.70;2.60;;;19.70;55.60;;;;;;5075583;28;20164;-50
2023/10/09 14:36:34;;;;;;;3.35;1.90;;;19.70;55.90;;;;;;5075707;28;20172;-50
2023/10/09 14:39:01;;;;;;;4.65;2.65;;;19.70;55.90;;;;;;5075497;28;20217;-53
2023/10/09 14:41:27;;;;;;;9.65;3.45;;;19.60;55.80;;;;;;5075065;28;20173;-50
2023/10/09 14:43:54;;;;;;;3.78;1.83;;;19.70;55.90;;;;;;5075039;28;20169;-49
2023/10/09 14:46:25;;;;;;;5.97;2.55;;;19.60;55.70;;;;;;5075028;28;20802;-49
2023/10/09 14:48:53;;;;;;;4.75;2.08;;;19.70;55.90;;;;;;5075484;28;20200;-52
2023/10/09 14:51:29;;;;;;;7.40;4.13;;;19.60;56.00;;;;;;5075581;28;20259;-49
2023/10/09 14:53:59;;;;;;;4.40;2.47;;;19.60;56.40;;;;;;5074766;28;20595;-49
2023/10/09 14:56:28;;;;;;;5.18;2.28;;;19.50;56.10;;;;;;5075413;28;20553;-48
2023/10/09 14:58:59;;;;;;;3.85;1.98;;;19.60;56.10;;;;;;5075017;28;20548;-51
2023/10/09 15:01:31;;;;;;;3.75;2.05;;;19.50;56.00;;;;;;5074953;28;20256;-49
2023/10/09 15:03:59;;;;;;;2.53;1.25;;;19.50;56.10;;;;;;5074634;28;20180;-49
2023/10/09 15:06:30;;;;;;;2.20;1.50;;;19.50;56.10;;;;;;5075114;28;20836;-51
2023/10/09 15:09:07;;;;;;;4.68;2.33;;;19.50;56.00;;;;;;5075166;28;20200;-48
2023/10/09 15:11:34;;;;;;;3.55;1.90;;;19.50;56.00;;;;;;5074853;28;20183;-48
2023/10/09 15:14:00;;;;;;;3.08;1.50;;;19.50;56.00;;;;;;5073838;28;20169;-48
2023/10/09 15:16:26;;;;;;;3.20;2.10;;;19.50;56.00;;;;;;5073844;28;20181;-52
2023/10/09 15:18:57;;;;;;;3.55;2.40;;;19.50;56.00;;;;;;5074315;28;20209;-50
2023/10/09 15:21:26;;;;;;;3.67;1.38;;;19.50;55.90;;;;;;5074782;28;20179;-52
2023/10/09 15:23:55;;;;;;;3.70;1.90;;;19.50;56.00;;;;;;5074682;28;20179;-51
2023/10/09 15:26:24;;;;;;;4.20;1.55;;;19.50;55.90;;;;;;5074586;28;20230;-49
2023/10/09 15:28:52;;;;;;;3.88;1.67;;;19.50;56.00;;;;;;5074281;28;20189;-48
2023/10/09 15:31:20;;;;;;;3.95;1.75;;;19.50;56.10;;;;;;5074182;28;20179;-53
2023/10/09 15:33:47;;;;;;;3.55;2.20;;;18.00;55.30;;;;;;5074011;28;20177;-52
2023/10/09 15:36:18;;;;;;;2.50;1.33;;;19.50;56.00;;;;;;5074341;28;20187;-49
2023/10/09 15:38:43;;;;;;;5.07;2.65;;;19.50;56.00;;;;;;5074297;28;20212;-48
2023/10/09 15:41:09;;;;;;;8.13;2.40;;;19.50;56.00;;;;;;5074241;28;20215;-52
2023/10/09 15:43:36;;;;;;;2.70;2.00;;;19.50;56.00;;;;;;5074217;28;20650;-49
2023/10/09 15:46:02;;;;;;;2.42;1.55;;;19.50;55.80;;;;;;5074267;28;20781;-49
2023/10/09 15:48:28;;;;;;;3.15;1.75;;;19.60;55.80;;;;;;5072746;28;20234;-50
2023/10/09 15:50:54;;;;;;;2.72;1.45;;;19.60;55.80;;;;;;5072871;28;20654;-50
2023/10/09 15:53:21;;;;;;;3.27;1.70;;;19.50;55.80;;;;;;5073746;28;20188;-49
2023/10/09 15:55:51;;;;;;;4.63;2.80;;;;;;;;;;5073769;28;20682;-51
2023/10/09 15:58:17;;;;;;;3.20;2.30;;;19.50;55.70;;;;;;5073617;28;20697;-52
2023/10/09 16:00:45;;;;;;;2.63;1.37;;;19.60;55.70;;;;;;5073970;28;20177;-52
2023/10/09 16:03:13;;;;;;;2.58;1.20;;;19.50;55.60;;;;;;5073630;28;20411;-49
2023/10/09 16:05:40;;;;;;;3.70;1.63;;;19.60;55.70;;;;;;5073806;28;20181;-52
2023/10/09 16:08:07;;;;;;;2.95;1.50;;;19.60;55.60;;;;;;5073615;28;20177;-51
2023/10/09 16:10:34;;;;;;;2.42;1.25;;;19.60;55.40;;;;;;5073500;28;20546;-48
2023/10/09 16:13:00;;;;;;;2.88;2.13;;;19.60;55.30;;;;;;5073383;28;20207;-48
2023/10/09 16:15:27;;;;;;;2.30;1.42;;;19.60;55.30;;;;;;5073262;28;20654;-51
2023/10/09 16:18:02;;;;;;;2.50;2.05;;;19.60;55.40;;;;;;5073499;28;20196;-51
2023/10/09 16:20:31;;;;;;;2.67;1.77;;;19.60;55.40;;;;;;5072058;28;20198;-48